sensor_id;sensor_type;location;lat;lon;timestamp;pressure;altitude;pressure_sealevel;temperature;humidity
53758;BME280;39674;59.860;30.672;2023-01-28T00:01:28;102165.31;;;-3.85;100.00
53758;BME280;39674;59.860;30.672;2023-01-28T00:04:10;102168.53;;;-3.92;100.00
53758;BME280;39674;59.860;30.672;2023-01-28T00:06:44;102175.53;;;-3.88;100.00
53758;BME280;39674;59.860;30.672;2023-01-28T00:09:26;102171.19;;;-3.89;100.00
53758;BME280;39674;59.860;30.672;2023-01-28T00:12:03;102174.69;;;-3.87;100.00
53758;BME280;39674;59.860;30.672;2023-01-28T00:14:36;102176.31;;;-3.91;100.00
53758;BME280;39674;59.860;30.672;2023-01-28T00:17:09;102173.91;;;-3.84;100.00
53758;BME280;39674;59.860;30.672;2023-01-28T00:19:40;102171.34;;;-3.84;100.00
53758;BME280;39674;59.860;30.672;2023-01-28T00:22:24;102172.75;;;-3.94;100.00
53758;BME280;39674;59.860;30.672;2023-01-28T00:25:05;102177.94;;;-3.93;100.00
53758;BME280;39674;59.860;30.672;2023-01-28T00:27:39;102175.22;;;-3.97;100.00
53758;BME280;39674;59.860;30.672;2023-01-28T00:30:10;102170.16;;;-3.94;100.00
53758;BME280;39674;59.860;30.672;2023-01-28T00:32:48;102159.84;;;-3.94;100.00
53758;BME280;39674;59.860;30.672;2023-01-28T00:35:29;102161.59;;;-3.93;100.00
53758;BME280;39674;59.860;30.672;2023-01-28T00:38:07;102160.50;;;-4.00;100.00
53758;BME280;39674;59.860;30.672;2023-01-28T00:40:39;102156.97;;;-4.04;100.00
53758;BME280;39674;59.860;30.672;2023-01-28T00:43:09;102153.28;;;-4.12;100.00
53758;BME280;39674;59.860;30.672;2023-01-28T00:45:38;102155.66;;;-4.18;100.00
53758;BME280;39674;59.860;30.672;2023-01-28T00:48:25;102150.78;;;-4.09;100.00
53758;BME280;39674;59.860;30.672;2023-01-28T00:50:59;102146.25;;;-4.16;100.00
53758;BME280;39674;59.860;30.672;2023-01-28T00:53:36;102136.03;;;-4.13;100.00
53758;BME280;39674;59.860;30.672;2023-01-28T00:56:21;102144.59;;;-4.14;100.00
53758;BME280;39674;59.860;30.672;2023-01-28T00:58:52;102152.19;;;-4.19;100.00
53758;BME280;39674;59.860;30.672;2023-01-28T01:01:42;102140.19;;;-4.18;100.00
53758;BME280;39674;59.860;30.672;2023-01-28T01:04:24;102136.75;;;-4.17;100.00
53758;BME280;39674;59.860;30.672;2023-01-28T01:07:13;102130.75;;;-4.16;100.00
53758;BME280;39674;59.860;30.672;2023-01-28T01:09:53;102136.19;;;-4.08;100.00
53758;BME280;39674;59.860;30.672;2023-01-28T01:12:26;102128.09;;;-4.19;100.00
53758;BME280;39674;59.860;30.672;2023-01-28T01:14:57;102131.38;;;-4.23;100.00
53758;BME280;39674;59.860;30.672;2023-01-28T01:17:34;102130.28;;;-4.31;100.00
53758;BME280;39674;59.860;30.672;2023-01-28T01:20:10;102129.19;;;-4.38;100.00
53758;BME280;39674;59.860;30.672;2023-01-28T01:22:40;102133.34;;;-4.43;100.00
53758;BME280;39674;59.860;30.672;2023-01-28T01:25:08;102123.63;;;-4.51;100.00
53758;BME280;39674;59.860;30.672;2023-01-28T01:27:47;102120.69;;;-4.61;100.00
53758;BME280;39674;59.860;30.672;2023-01-28T01:30:21;102120.81;;;-4.58;100.00
53758;BME280;39674;59.860;30.672;2023-01-28T01:32:52;102115.44;;;-4.64;100.00
53758;BME280;39674;59.860;30.672;2023-01-28T01:35:24;102116.25;;;-4.65;100.00
53758;BME280;39674;59.860;30.672;2023-01-28T01:38:00;102117.19;;;-4.63;100.00
53758;BME280;39674;59.860;30.672;2023-01-28T01:40:39;102119.88;;;-4.60;100.00
53758;BME280;39674;59.860;30.672;2023-01-28T01:43:19;102111.09;;;-4.65;100.00
53758;BME280;39674;59.860;30.672;2023-01-28T01:45:54;102111.88;;;-4.68;100.00
53758;BME280;39674;59.860;30.672;2023-01-28T01:48:28;102104.31;;;-4.63;100.00
53758;BME280;39674;59.860;30.672;2023-01-28T01:51:01;102103.47;;;-4.62;100.00
53758;BME280;39674;59.860;30.672;2023-01-28T01:53:35;102104.19;;;-4.67;100.00
53758;BME280;39674;59.860;30.672;2023-01-28T01:56:09;102097.59;;;-4.58;100.00
53758;BME280;39674;59.860;30.672;2023-01-28T01:58:48;102092.28;;;-4.63;100.00
53758;BME280;39674;59.860;30.672;2023-01-28T02:01:26;102089.66;;;-4.64;100.00
53758;BME280;39674;59.860;30.672;2023-01-28T02:03:58;102081.59;;;-4.74;100.00
53758;BME280;39674;59.860;30.672;2023-01-28T02:06:33;102086.97;;;-4.68;100.00
53758;BME280;39674;59.860;30.672;2023-01-28T02:09:20;102088.72;;;-4.67;100.00
53758;BME280;39674;59.860;30.672;2023-01-28T02:11:57;102079.97;;;-4.72;100.00
53758;BME280;39674;59.860;30.672;2023-01-28T02:14:41;102092.31;;;-4.61;100.00
53758;BME280;39674;59.860;30.672;2023-01-28T02:17:16;102088.06;;;-4.61;100.00
53758;BME280;39674;59.860;30.672;2023-01-28T02:19:55;102084.31;;;-4.71;100.00
53758;BME280;39674;59.860;30.672;2023-01-28T02:22:38;102086.50;;;-4.81;100.00
53758;BME280;39674;59.860;30.672;2023-01-28T02:25:32;102066.28;;;-4.95;100.00
53758;BME280;39674;59.860;30.672;2023-01-28T02:28:17;102081.94;;;-4.90;100.00
53758;BME280;39674;59.860;30.672;2023-01-28T02:31:06;102081.19;;;-4.86;100.00
53758;BME280;39674;59.860;30.672;2023-01-28T02:33:54;102077.84;;;-4.84;100.00
53758;BME280;39674;59.860;30.672;2023-01-28T02:36:47;102078.66;;;-4.85;100.00
53758;BME280;39674;59.860;30.672;2023-01-28T02:39:22;102074.97;;;-4.93;100.00
53758;BME280;39674;59.860;30.672;2023-01-28T02:41:59;102079.22;;;-4.93;100.00
53758;BME280;39674;59.860;30.672;2023-01-28T02:44:48;102075.00;;;-4.91;100.00
53758;BME280;39674;59.860;30.672;2023-01-28T02:47:18;102080.88;;;-4.95;100.00
53758;BME280;39674;59.860;30.672;2023-01-28T02:50:06;102074.84;;;-4.96;100.00
53758;BME280;39674;59.860;30.672;2023-01-28T02:52:50;102065.19;;;-5.02;100.00
53758;BME280;39674;59.860;30.672;2023-01-28T02:55:58;102068.28;;;-5.12;100.00
53758;BME280;39674;59.860;30.672;2023-01-28T02:58:37;102064.91;;;-5.11;100.00
53758;BME280;39674;59.860;30.672;2023-01-28T03:01:13;102059.69;;;-5.12;100.00
53758;BME280;39674;59.860;30.672;2023-01-28T03:03:57;102060.31;;;-5.20;100.00
53758;BME280;39674;59.860;30.672;2023-01-28T03:06:31;102054.94;;;-5.26;100.00
53758;BME280;39674;59.860;30.672;2023-01-28T03:09:46;102060.94;;;-5.25;100.00
53758;BME280;39674;59.860;30.672;2023-01-28T03:12:23;102062.72;;;-5.24;100.00
53758;BME280;39674;59.860;30.672;2023-01-28T03:15:15;102066.09;;;-5.25;100.00
53758;BME280;39674;59.860;30.672;2023-01-28T03:18:10;102057.56;;;-5.24;100.00
53758;BME280;39674;59.860;30.672;2023-01-28T03:21:01;102061.94;;;-5.22;100.00
53758;BME280;39674;59.860;30.672;2023-01-28T03:23:57;102050.91;;;-5.18;100.00
53758;BME280;39674;59.860;30.672;2023-01-28T03:26:53;102054.03;;;-5.26;100.00
53758;BME280;39674;59.860;30.672;2023-01-28T03:29:46;102058.63;;;-5.18;100.00
53758;BME280;39674;59.860;30.672;2023-01-28T03:32:36;102058.94;;;-5.10;100.00
53758;BME280;39674;59.860;30.672;2023-01-28T03:35:36;102060.72;;;-5.07;100.00
53758;BME280;39674;59.860;30.672;2023-01-28T03:38:24;102062.53;;;-5.05;100.00
53758;BME280;39674;59.860;30.672;2023-01-28T03:41:06;102056.59;;;-5.02;100.00
53758;BME280;39674;59.860;30.672;2023-01-28T03:43:43;102052.22;;;-5.05;100.00
53758;BME280;39674;59.860;30.672;2023-01-28T03:46:15;102053.81;;;-5.08;100.00
53758;BME280;39674;59.860;30.672;2023-01-28T03:48:47;102054.63;;;-5.09;100.00
53758;BME280;39674;59.860;30.672;2023-01-28T03:51:26;102041.59;;;-5.14;100.00
53758;BME280;39674;59.860;30.672;2023-01-28T03:53:56;102038.09;;;-5.16;100.00
53758;BME280;39674;59.860;30.672;2023-01-28T03:56:44;102029.53;;;-5.15;100.00
53758;BME280;39674;59.860;30.672;2023-01-28T03:59:25;102026.03;;;-5.17;100.00
53758;BME280;39674;59.860;30.672;2023-01-28T04:02:08;102034.78;;;-5.12;100.00
53758;BME280;39674;59.860;30.672;2023-01-28T04:04:37;102033.78;;;-5.17;100.00
53758;BME280;39674;59.860;30.672;2023-01-28T04:07:11;102030.91;;;-5.25;100.00
53758;BME280;39674;59.860;30.672;2023-01-28T04:10:11;102028.84;;;-5.35;100.00
53758;BME280;39674;59.860;30.672;2023-01-28T04:13:03;102029.50;;;-5.41;100.00
53758;BME280;39674;59.860;30.672;2023-01-28T04:15:37;102019.91;;;-5.45;100.00
53758;BME280;39674;59.860;30.672;2023-01-28T04:18:12;102012.91;;;-5.49;100.00
53758;BME280;39674;59.860;30.672;2023-01-28T04:20:41;102005.97;;;-5.52;100.00
53758;BME280;39674;59.860;30.672;2023-01-28T04:23:14;102013.81;;;-5.47;100.00
53758;BME280;39674;59.860;30.672;2023-01-28T04:25:48;102011.13;;;-5.52;100.00
53758;BME280;39674;59.860;30.672;2023-01-28T04:28:42;102008.69;;;-5.47;100.00
53758;BME280;39674;59.860;30.672;2023-01-28T04:31:19;102011.16;;;-5.50;100.00
53758;BME280;39674;59.860;30.672;2023-01-28T04:34:10;102005.19;;;-5.49;100.00
53758;BME280;39674;59.860;30.672;2023-01-28T04:37:12;102009.53;;;-5.48;100.00
53758;BME280;39674;59.860;30.672;2023-01-28T04:40:18;102014.69;;;-5.48;100.00
53758;BME280;39674;59.860;30.672;2023-01-28T04:43:08;102000.03;;;-5.49;100.00
53758;BME280;39674;59.860;30.672;2023-01-28T04:45:52;102005.19;;;-5.49;100.00
53758;BME280;39674;59.860;30.672;2023-01-28T04:48:42;102005.63;;;-5.37;100.00
53758;BME280;39674;59.860;30.672;2023-01-28T04:51:47;102003.81;;;-5.39;100.00
53758;BME280;39674;59.860;30.672;2023-01-28T04:54:35;102005.28;;;-5.46;100.00
53758;BME280;39674;59.860;30.672;2023-01-28T04:57:11;101994.97;;;-5.46;100.00
53758;BME280;39674;59.860;30.672;2023-01-28T05:00:20;101988.00;;;-5.50;100.00
53758;BME280;39674;59.860;30.672;2023-01-28T05:02:53;101994.06;;;-5.48;100.00
53758;BME280;39674;59.860;30.672;2023-01-28T05:05:27;101994.91;;;-5.49;100.00
53758;BME280;39674;59.860;30.672;2023-01-28T05:08:12;101991.34;;;-5.53;100.00
53758;BME280;39674;59.860;30.672;2023-01-28T05:10:59;101987.09;;;-5.51;100.00
53758;BME280;39674;59.860;30.672;2023-01-28T05:17:33;101989.63;;;-5.52;100.00
53758;BME280;39674;59.860;30.672;2023-01-28T05:20:27;101985.38;;;-5.52;100.00
53758;BME280;39674;59.860;30.672;2023-01-28T05:23:06;101988.59;;;-5.57;100.00
53758;BME280;39674;59.860;30.672;2023-01-28T05:25:49;101973.97;;;-5.58;100.00
53758;BME280;39674;59.860;30.672;2023-01-28T05:28:39;101975.72;;;-5.57;100.00
53758;BME280;39674;59.860;30.672;2023-01-28T05:31:10;101963.66;;;-5.58;100.00
53758;BME280;39674;59.860;30.672;2023-01-28T05:33:47;101952.50;;;-5.59;100.00
53758;BME280;39674;59.860;30.672;2023-01-28T05:36:30;101959.50;;;-5.55;100.00
53758;BME280;39674;59.860;30.672;2023-01-28T05:39:11;101950.31;;;-5.72;100.00
53758;BME280;39674;59.860;30.672;2023-01-28T05:41:49;101954.69;;;-5.70;100.00
53758;BME280;39674;59.860;30.672;2023-01-28T05:44:26;101943.47;;;-5.72;100.00
53758;BME280;39674;59.860;30.672;2023-01-28T05:47:21;101947.06;;;-5.67;100.00
53758;BME280;39674;59.860;30.672;2023-01-28T05:50:00;101943.47;;;-5.72;100.00
53758;BME280;39674;59.860;30.672;2023-01-28T05:52:43;101950.25;;;-5.74;100.00
53758;BME280;39674;59.860;30.672;2023-01-28T05:55:24;101945.94;;;-5.75;100.00
53758;BME280;39674;59.860;30.672;2023-01-28T05:57:58;101949.44;;;-5.73;100.00
53758;BME280;39674;59.860;30.672;2023-01-28T06:00:31;101948.44;;;-5.76;100.00
53758;BME280;39674;59.860;30.672;2023-01-28T06:03:08;101951.19;;;-5.72;100.00
53758;BME280;39674;59.860;30.672;2023-01-28T06:05:45;101949.53;;;-5.70;100.00
53758;BME280;39674;59.860;30.672;2023-01-28T06:08:40;101945.94;;;-5.75;100.00
53758;BME280;39674;59.860;30.672;2023-01-28T06:11:23;101947.91;;;-5.68;100.00
53758;BME280;39674;59.860;30.672;2023-01-28T06:13:55;101943.50;;;-5.70;100.00
53758;BME280;39674;59.860;30.672;2023-01-28T06:16:30;101952.94;;;-5.71;100.00
53758;BME280;39674;59.860;30.672;2023-01-28T06:19:23;101959.84;;;-5.70;100.00
53758;BME280;39674;59.860;30.672;2023-01-28T06:21:54;101954.69;;;-5.70;100.00
53758;BME280;39674;59.860;30.672;2023-01-28T06:24:31;101950.38;;;-5.71;100.00
53758;BME280;39674;59.860;30.672;2023-01-28T06:27:09;101956.44;;;-5.69;100.00
53758;BME280;39674;59.860;30.672;2023-01-28T06:29:41;101956.31;;;-5.72;100.00
53758;BME280;39674;59.860;30.672;2023-01-28T06:32:14;101952.94;;;-5.71;100.00
53758;BME280;39674;59.860;30.672;2023-01-28T06:34:43;101950.50;;;-5.68;100.00
53758;BME280;39674;59.860;30.672;2023-01-28T06:37:16;101954.78;;;-5.67;100.00
53758;BME280;39674;59.860;30.672;2023-01-28T06:39:56;101955.34;;;-5.75;100.00
53758;BME280;39674;59.860;30.672;2023-01-28T06:42:41;101953.28;;;-5.86;100.00
53758;BME280;39674;59.860;30.672;2023-01-28T06:45:13;101937.94;;;-5.83;100.00
53758;BME280;39674;59.860;30.672;2023-01-28T06:47:49;101944.06;;;-5.79;100.00
53758;BME280;39674;59.860;30.672;2023-01-28T06:50:32;101958.63;;;-5.80;100.00
53758;BME280;39674;59.860;30.672;2023-01-28T06:53:06;101956.13;;;-5.78;100.00
53758;BME280;39674;59.860;30.672;2023-01-28T06:55:58;101945.59;;;-5.84;100.00
53758;BME280;39674;59.860;30.672;2023-01-28T06:58:38;101948.91;;;-5.88;100.00
53758;BME280;39674;59.860;30.672;2023-01-28T07:01:21;101941.88;;;-5.92;100.00
53758;BME280;39674;59.860;30.672;2023-01-28T07:04:00;101941.88;;;-5.92;100.00
53758;BME280;39674;59.860;30.672;2023-01-28T07:06:33;101928.09;;;-5.94;100.00
53758;BME280;39674;59.860;30.672;2023-01-28T07:09:21;101931.69;;;-5.89;100.00
53758;BME280;39674;59.860;30.672;2023-01-28T07:11:53;101932.47;;;-5.92;100.00
53758;BME280;39674;59.860;30.672;2023-01-28T07:14:36;101930.16;;;-5.84;100.00
53758;BME280;39674;59.860;30.672;2023-01-28T07:17:08;101918.31;;;-5.79;100.00
53758;BME280;39674;59.860;30.672;2023-01-28T07:19:50;101926.03;;;-5.79;100.00
53758;BME280;39674;59.860;30.672;2023-01-28T07:22:27;101918.22;;;-5.82;100.00
53758;BME280;39674;59.860;30.672;2023-01-28T07:25:09;101909.78;;;-5.78;100.00
53758;BME280;39674;59.860;30.672;2023-01-28T07:28:01;101901.25;;;-5.77;100.00
53758;BME280;39674;59.860;30.672;2023-01-28T07:30:36;101900.69;;;-5.68;100.00
53758;BME280;39674;59.860;30.672;2023-01-28T07:33:09;101894.75;;;-5.66;100.00
53758;BME280;39674;59.860;30.672;2023-01-28T07:35:46;101903.91;;;-5.74;100.00
53758;BME280;39674;59.860;30.672;2023-01-28T07:38:39;101892.94;;;-5.70;100.00
53758;BME280;39674;59.860;30.672;2023-01-28T07:41:28;101899.81;;;-5.69;100.00
53758;BME280;39674;59.860;30.672;2023-01-28T07:44:30;101882.63;;;-5.70;100.00
53758;BME280;39674;59.860;30.672;2023-01-28T07:46:59;101890.19;;;-5.74;100.00
53758;BME280;39674;59.860;30.672;2023-01-28T07:49:30;101885.09;;;-5.73;100.00
53758;BME280;39674;59.860;30.672;2023-01-28T07:52:05;101886.75;;;-5.75;100.00
53758;BME280;39674;59.860;30.672;2023-01-28T07:54:47;101887.66;;;-5.73;100.00
53758;BME280;39674;59.860;30.672;2023-01-28T07:57:32;101890.09;;;-5.77;100.00
53758;BME280;39674;59.860;30.672;2023-01-28T08:00:19;101885.59;;;-5.83;100.00
53758;BME280;39674;59.860;30.672;2023-01-28T08:02:58;101881.88;;;-5.91;100.00
53758;BME280;39674;59.860;30.672;2023-01-28T08:05:39;101885.38;;;-5.89;100.00
53758;BME280;39674;59.860;30.672;2023-01-28T08:08:50;101877.72;;;-5.88;100.00
53758;BME280;39674;59.860;30.672;2023-01-28T08:11:29;101878.91;;;-5.78;100.00
53758;BME280;39674;59.860;30.672;2023-01-28T08:14:19;101876.25;;;-5.81;100.00
53758;BME280;39674;59.860;30.672;2023-01-28T08:16:49;101879.69;;;-5.81;100.00
53758;BME280;39674;59.860;30.672;2023-01-28T08:19:36;101876.03;;;-5.87;100.00
53758;BME280;39674;59.860;30.672;2023-01-28T08:22:22;101870.03;;;-5.86;100.00
53758;BME280;39674;59.860;30.672;2023-01-28T08:25:03;101861.28;;;-5.91;100.00
53758;BME280;39674;59.860;30.672;2023-01-28T08:27:51;101853.41;;;-5.96;100.00
53758;BME280;39674;59.860;30.672;2023-01-28T08:30:37;101840.00;;;-5.87;100.00
53758;BME280;39674;59.860;30.672;2023-01-28T08:33:14;101845.75;;;-5.94;100.00
53758;BME280;39674;59.860;30.672;2023-01-28T08:38:57;101837.53;;;-5.84;100.00
53758;BME280;39674;59.860;30.672;2023-01-28T08:41:36;101829.00;;;-5.83;100.00
53758;BME280;39674;59.860;30.672;2023-01-28T08:44:18;101818.78;;;-5.80;100.00
53758;BME280;39674;59.860;30.672;2023-01-28T08:47:09;101815.50;;;-5.76;100.00
53758;BME280;39674;59.860;30.672;2023-01-28T08:49:53;101816.28;;;-5.78;100.00
53758;BME280;39674;59.860;30.672;2023-01-28T08:52:29;101804.91;;;-5.85;100.00
53758;BME280;39674;59.860;30.672;2023-01-28T08:55:13;101807.66;;;-5.79;100.00
53758;BME280;39674;59.860;30.672;2023-01-28T08:57:41;101808.59;;;-5.77;100.00
53758;BME280;39674;59.860;30.672;2023-01-28T09:00:15;101797.28;;;-5.82;100.00
53758;BME280;39674;59.860;30.672;2023-01-28T09:02:51;101795.53;;;-5.83;100.00
53758;BME280;39674;59.860;30.672;2023-01-28T09:05:25;101804.13;;;-5.83;100.00
53758;BME280;39674;59.860;30.672;2023-01-28T09:07:56;101787.00;;;-5.82;100.00
53758;BME280;39674;59.860;30.672;2023-01-28T09:10:32;101792.31;;;-5.77;100.00
53758;BME280;39674;59.860;30.672;2023-01-28T09:13:08;101786.47;;;-5.72;100.00
53758;BME280;39674;59.860;30.672;2023-01-28T09:15:42;101782.13;;;-5.73;100.00
53758;BME280;39674;59.860;30.672;2023-01-28T09:18:16;101777.72;;;-5.77;100.00
53758;BME280;39674;59.860;30.672;2023-01-28T09:21:07;101771.84;;;-5.73;100.00
53758;BME280;39674;59.860;30.672;2023-01-28T09:23:43;101778.69;;;-5.73;100.00
53758;BME280;39674;59.860;30.672;2023-01-28T09:26:15;101775.38;;;-5.69;100.00
53758;BME280;39674;59.860;30.672;2023-01-28T09:28:43;101776.47;;;-5.62;100.00
53758;BME280;39674;59.860;30.672;2023-01-28T09:31:32;101773.00;;;-5.63;100.00
53758;BME280;39674;59.860;30.672;2023-01-28T09:34:04;101774.81;;;-5.60;100.00
53758;BME280;39674;59.860;30.672;2023-01-28T09:36:39;101768.94;;;-5.56;100.00
53758;BME280;39674;59.860;30.672;2023-01-28T09:39:08;101758.66;;;-5.56;100.00
53758;BME280;39674;59.860;30.672;2023-01-28T09:41:42;101766.47;;;-5.53;100.00
53758;BME280;39674;59.860;30.672;2023-01-28T09:44:29;101753.50;;;-5.56;100.00
53758;BME280;39674;59.860;30.672;2023-01-28T09:47:07;101751.75;;;-5.57;100.00
53758;BME280;39674;59.860;30.672;2023-01-28T09:49:48;101751.00;;;-5.53;100.00
53758;BME280;39674;59.860;30.672;2023-01-28T09:52:38;101739.06;;;-5.51;100.00
53758;BME280;39674;59.860;30.672;2023-01-28T09:55:18;101739.69;;;-5.58;100.00
53758;BME280;39674;59.860;30.672;2023-01-28T09:57:53;101742.56;;;-5.49;100.00
53758;BME280;39674;59.860;30.672;2023-01-28T10:00:28;101741.09;;;-5.41;100.00
53758;BME280;39674;59.860;30.672;2023-01-28T10:06:03;101731.69;;;-5.40;100.00
53758;BME280;39674;59.860;30.672;2023-01-28T10:08:54;101722.19;;;-5.41;100.00
53758;BME280;39674;59.860;30.672;2023-01-28T10:11:37;101718.69;;;-5.43;100.00
53758;BME280;39674;59.860;30.672;2023-01-28T10:14:16;101716.13;;;-5.43;100.00
53758;BME280;39674;59.860;30.672;2023-01-28T10:16:56;101711.75;;;-5.46;100.00
53758;BME280;39674;59.860;30.672;2023-01-28T10:19:55;101709.34;;;-5.41;100.00
53758;BME280;39674;59.860;30.672;2023-01-28T10:22:33;101703.41;;;-5.39;100.00
53758;BME280;39674;59.860;30.672;2023-01-28T10:25:16;101698.34;;;-5.36;100.00
53758;BME280;39674;59.860;30.672;2023-01-28T10:27:47;101693.03;;;-5.42;100.00
53758;BME280;39674;59.860;30.672;2023-01-28T10:30:48;101680.16;;;-5.42;100.00
53758;BME280;39674;59.860;30.672;2023-01-28T10:33:37;101671.53;;;-5.42;100.00
53758;BME280;39674;59.860;30.672;2023-01-28T10:36:10;101668.16;;;-5.40;100.00
53758;BME280;39674;59.860;30.672;2023-01-28T10:38:50;101662.22;;;-5.37;100.00
53758;BME280;39674;59.860;30.672;2023-01-28T10:41:28;101658.94;;;-5.33;100.00
53758;BME280;39674;59.860;30.672;2023-01-28T10:44:07;101659.75;;;-5.34;100.00
53758;BME280;39674;59.860;30.672;2023-01-28T10:46:44;101657.22;;;-5.33;100.00
53758;BME280;39674;59.860;30.672;2023-01-28T10:49:35;101659.16;;;-5.25;100.00
53758;BME280;39674;59.860;30.672;2023-01-28T10:52:10;101652.25;;;-5.26;100.00
53758;BME280;39674;59.860;30.672;2023-01-28T10:54:45;101655.75;;;-5.24;100.00
53758;BME280;39674;59.860;30.672;2023-01-28T10:57:24;101659.28;;;-5.21;100.00
53758;BME280;39674;59.860;30.672;2023-01-28T10:59:56;101655.81;;;-5.21;100.00
53758;BME280;39674;59.860;30.672;2023-01-28T11:02:30;101659.31;;;-5.19;100.00
53758;BME280;39674;59.860;30.672;2023-01-28T11:05:48;101645.63;;;-5.18;100.00
53758;BME280;39674;59.860;30.672;2023-01-28T11:08:13;101641.41;;;-5.16;100.00
53758;BME280;39674;59.860;30.672;2023-01-28T11:10:56;101641.31;;;-5.18;100.00
53758;BME280;39674;59.860;30.672;2023-01-28T11:13:32;101636.25;;;-5.16;100.00
53758;BME280;39674;59.860;30.672;2023-01-28T11:16:05;101635.22;;;-5.21;100.00
53758;BME280;39674;59.860;30.672;2023-01-28T11:19:13;101632.63;;;-5.21;100.00
53758;BME280;39674;59.860;30.672;2023-01-28T11:21:54;101625.81;;;-5.21;100.00
53758;BME280;39674;59.860;30.672;2023-01-28T11:24:30;101623.09;;;-5.25;100.00
53758;BME280;39674;59.860;30.672;2023-01-28T11:27:14;101616.19;;;-5.26;100.00
53758;BME280;39674;59.860;30.672;2023-01-28T11:29:55;101614.44;;;-5.27;100.00
53758;BME280;39674;59.860;30.672;2023-01-28T11:32:42;101607.56;;;-5.28;100.00
53758;BME280;39674;59.860;30.672;2023-01-28T11:35:23;101594.69;;;-5.28;100.00
53758;BME280;39674;59.860;30.672;2023-01-28T11:38:11;101588.63;;;-5.30;100.00
53758;BME280;39674;59.860;30.672;2023-01-28T11:40:57;101579.91;;;-5.36;100.00
53758;BME280;39674;59.860;30.672;2023-01-28T11:43:54;101574.63;;;-5.40;100.00
53758;BME280;39674;59.860;30.672;2023-01-28T11:46:45;101571.16;;;-5.41;100.00
53758;BME280;39674;59.860;30.672;2023-01-28T11:49:39;101563.25;;;-5.47;100.00
53758;BME280;39674;59.860;30.672;2023-01-28T11:52:26;101561.44;;;-5.51;100.00
53758;BME280;39674;59.860;30.672;2023-01-28T11:55:57;101558.97;;;-5.48;100.00
53758;BME280;39674;59.860;30.672;2023-01-28T11:58:45;101554.75;;;-5.44;100.00
53758;BME280;39674;59.860;30.672;2023-01-28T12:02:05;101536.50;;;-5.52;100.00
53758;BME280;39674;59.860;30.672;2023-01-28T12:04:52;101528.88;;;-5.49;100.00
53758;BME280;39674;59.860;30.672;2023-01-28T12:08:08;101528.13;;;-5.45;100.00
53758;BME280;39674;59.860;30.672;2023-01-28T12:10:47;101526.38;;;-5.46;100.00
53758;BME280;39674;59.860;30.672;2023-01-28T12:16:41;101511.72;;;-5.49;100.00
53758;BME280;39674;59.860;30.672;2023-01-28T12:19:36;101511.09;;;-5.40;100.00
53758;BME280;39674;59.860;30.672;2023-01-28T12:22:23;101500.72;;;-5.43;100.00
53758;BME280;39674;59.860;30.672;2023-01-28T12:25:16;101509.25;;;-5.45;100.00
53758;BME280;39674;59.860;30.672;2023-01-28T12:27:54;101497.88;;;-5.54;100.00
53758;BME280;39674;59.860;30.672;2023-01-28T12:30:32;101490.19;;;-5.52;100.00
53758;BME280;39674;59.860;30.672;2023-01-28T12:33:25;101490.28;;;-5.49;100.00
53758;BME280;39674;59.860;30.672;2023-01-28T12:36:05;101494.50;;;-5.51;100.00
53758;BME280;39674;59.860;30.672;2023-01-28T12:38:43;101486.88;;;-5.48;100.00
53758;BME280;39674;59.860;30.672;2023-01-28T12:41:16;101479.97;;;-5.49;100.00
53758;BME280;39674;59.860;30.672;2023-01-28T12:44:03;101467.78;;;-5.56;100.00
53758;BME280;39674;59.860;30.672;2023-01-28T12:46:42;101462.78;;;-5.50;100.00
53758;BME280;39674;59.860;30.672;2023-01-28T12:49:24;101450.63;;;-5.54;100.00
53758;BME280;39674;59.860;30.672;2023-01-28T12:52:14;101444.72;;;-5.52;100.00
53758;BME280;39674;59.860;30.672;2023-01-28T12:54:52;101452.31;;;-5.56;100.00
53758;BME280;39674;59.860;30.672;2023-01-28T12:57:38;101447.50;;;-5.44;100.00
53758;BME280;39674;59.860;30.672;2023-01-28T13:00:20;101444.00;;;-5.46;100.00
53758;BME280;39674;59.860;30.672;2023-01-28T13:02:52;101444.03;;;-5.44;100.00
53758;BME280;39674;59.860;30.672;2023-01-28T13:05:37;101442.25;;;-5.47;100.00
53758;BME280;39674;59.860;30.672;2023-01-28T13:08:26;101447.56;;;-5.41;100.00
53758;BME280;39674;59.860;30.672;2023-01-28T13:11:17;101440.75;;;-5.39;100.00
53758;BME280;39674;59.860;30.672;2023-01-28T13:13:59;101446.81;;;-5.37;100.00
53758;BME280;39674;59.860;30.672;2023-01-28T13:16:40;101445.91;;;-5.39;100.00
53758;BME280;39674;59.860;30.672;2023-01-28T13:19:24;101440.78;;;-5.37;100.00
53758;BME280;39674;59.860;30.672;2023-01-28T13:22:23;101432.88;;;-5.45;100.00
53758;BME280;39674;59.860;30.672;2023-01-28T13:25:10;101433.69;;;-5.46;100.00
53758;BME280;39674;59.860;30.672;2023-01-28T13:27:57;101419.88;;;-5.50;100.00
53758;BME280;39674;59.860;30.672;2023-01-28T13:30:46;101411.28;;;-5.50;100.00
53758;BME280;39674;59.860;30.672;2023-01-28T13:33:26;101402.81;;;-5.46;100.00
53758;BME280;39674;59.860;30.672;2023-01-28T13:36:01;101401.00;;;-5.50;100.00
53758;BME280;39674;59.860;30.672;2023-01-28T13:38:45;101401.00;;;-5.50;100.00
53758;BME280;39674;59.860;30.672;2023-01-28T13:41:18;101409.66;;;-5.46;100.00
53758;BME280;39674;59.860;30.672;2023-01-28T13:43:51;101399.41;;;-5.45;100.00
53758;BME280;39674;59.860;30.672;2023-01-28T13:46:25;101386.50;;;-5.46;100.00
53758;BME280;39674;59.860;30.672;2023-01-28T13:48:57;101373.50;;;-5.51;100.00
53758;BME280;39674;59.860;30.672;2023-01-28T13:51:38;101356.31;;;-5.52;100.00
53758;BME280;39674;59.860;30.672;2023-01-28T13:54:29;101346.13;;;-5.48;100.00
53758;BME280;39674;59.860;30.672;2023-01-28T14:00:12;101349.41;;;-5.53;100.00